sensor_id;sensor_type;location;lat;lon;timestamp;P1;durP1;ratioP1;P2;durP2;ratioP2
58384;SDS011;44185;47.844;8.966;2023-05-29T00:01:11;9.82;;;4.20;;
58384;SDS011;44185;47.844;8.966;2023-05-29T00:03:36;7.93;;;3.55;;
58384;SDS011;44185;47.844;8.966;2023-05-29T00:06:03;9.55;;;4.38;;
58384;SDS011;44185;47.844;8.966;2023-05-29T00:08:28;9.25;;;4.05;;
58384;SDS011;44185;47.844;8.966;2023-05-29T00:10:54;8.45;;;3.97;;
58384;SDS011;44185;47.844;8.966;2023-05-29T00:13:19;8.68;;;3.60;;
58384;SDS011;44185;47.844;8.966;2023-05-29T00:15:45;9.07;;;3.88;;
58384;SDS011;44185;47.844;8.966;2023-05-29T00:18:11;8.47;;;4.00;;
58384;SDS011;44185;47.844;8.966;2023-05-29T00:20:36;11.75;;;3.95;;
58384;SDS011;44185;47.844;8.966;2023-05-29T00:23:03;6.53;;;3.60;;
58384;SDS011;44185;47.844;8.966;2023-05-29T00:25:29;11.23;;;4.03;;
58384;SDS011;44185;47.844;8.966;2023-05-29T00:27:55;11.95;;;4.78;;
58384;SDS011;44185;47.844;8.966;2023-05-29T00:30:20;10.18;;;4.32;;
58384;SDS011;44185;47.844;8.966;2023-05-29T00:32:45;7.70;;;3.72;;
58384;SDS011;44185;47.844;8.966;2023-05-29T00:35:11;10.40;;;4.13;;
58384;SDS011;44185;47.844;8.966;2023-05-29T00:37:36;9.05;;;4.22;;
58384;SDS011;44185;47.844;8.966;2023-05-29T00:40:04;9.30;;;3.83;;
58384;SDS011;44185;47.844;8.966;2023-05-29T00:42:30;8.32;;;3.83;;
58384;SDS011;44185;47.844;8.966;2023-05-29T00:44:55;12.18;;;4.65;;
58384;SDS011;44185;47.844;8.966;2023-05-29T00:47:21;10.07;;;4.50;;
58384;SDS011;44185;47.844;8.966;2023-05-29T00:49:46;9.43;;;4.05;;
58384;SDS011;44185;47.844;8.966;2023-05-29T00:52:14;11.73;;;4.47;;
58384;SDS011;44185;47.844;8.966;2023-05-29T00:54:43;9.52;;;4.15;;
58384;SDS011;44185;47.844;8.966;2023-05-29T00:57:11;9.55;;;3.90;;
58384;SDS011;44185;47.844;8.966;2023-05-29T00:59:37;8.13;;;3.97;;
58384;SDS011;44185;47.844;8.966;2023-05-29T01:02:04;10.13;;;4.15;;
58384;SDS011;44185;47.844;8.966;2023-05-29T01:04:30;13.43;;;5.07;;
58384;SDS011;44185;47.844;8.966;2023-05-29T01:06:56;12.80;;;4.22;;
58384;SDS011;44185;47.844;8.966;2023-05-29T01:09:21;10.70;;;4.55;;
58384;SDS011;44185;47.844;8.966;2023-05-29T01:11:49;9.63;;;3.80;;
58384;SDS011;44185;47.844;8.966;2023-05-29T01:14:23;11.60;;;4.25;;
58384;SDS011;44185;47.844;8.966;2023-05-29T01:17:06;9.95;;;4.57;;
58384;SDS011;44185;47.844;8.966;2023-05-29T01:19:45;9.55;;;4.05;;
58384;SDS011;44185;47.844;8.966;2023-05-29T01:22:25;9.73;;;4.05;;
58384;SDS011;44185;47.844;8.966;2023-05-29T01:25:02;7.18;;;3.80;;
58384;SDS011;44185;47.844;8.966;2023-05-29T01:27:35;10.32;;;4.18;;
58384;SDS011;44185;47.844;8.966;2023-05-29T01:30:02;9.80;;;4.00;;
58384;SDS011;44185;47.844;8.966;2023-05-29T01:32:28;11.43;;;3.88;;
58384;SDS011;44185;47.844;8.966;2023-05-29T01:34:54;10.30;;;3.75;;
58384;SDS011;44185;47.844;8.966;2023-05-29T01:37:20;8.85;;;4.10;;
58384;SDS011;44185;47.844;8.966;2023-05-29T01:39:45;8.38;;;3.35;;
58384;SDS011;44185;47.844;8.966;2023-05-29T01:42:11;11.50;;;4.25;;
58384;SDS011;44185;47.844;8.966;2023-05-29T01:44:38;12.38;;;4.28;;
58384;SDS011;44185;47.844;8.966;2023-05-29T01:47:04;9.95;;;3.97;;
58384;SDS011;44185;47.844;8.966;2023-05-29T01:49:30;9.98;;;4.28;;
58384;SDS011;44185;47.844;8.966;2023-05-29T01:51:57;6.63;;;3.22;;
58384;SDS011;44185;47.844;8.966;2023-05-29T01:54:23;8.93;;;3.70;;
58384;SDS011;44185;47.844;8.966;2023-05-29T01:56:49;7.53;;;3.58;;
58384;SDS011;44185;47.844;8.966;2023-05-29T01:59:16;9.80;;;4.03;;
58384;SDS011;44185;47.844;8.966;2023-05-29T02:01:43;11.65;;;4.35;;
58384;SDS011;44185;47.844;8.966;2023-05-29T02:04:09;8.25;;;4.18;;
58384;SDS011;44185;47.844;8.966;2023-05-29T02:06:34;10.30;;;3.90;;
58384;SDS011;44185;47.844;8.966;2023-05-29T02:08:59;10.98;;;4.07;;
58384;SDS011;44185;47.844;8.966;2023-05-29T02:11:25;8.70;;;3.72;;
58384;SDS011;44185;47.844;8.966;2023-05-29T02:13:50;9.40;;;3.95;;
58384;SDS011;44185;47.844;8.966;2023-05-29T02:16:16;11.23;;;4.15;;
58384;SDS011;44185;47.844;8.966;2023-05-29T02:18:43;11.30;;;4.25;;
58384;SDS011;44185;47.844;8.966;2023-05-29T02:21:08;9.00;;;3.72;;
58384;SDS011;44185;47.844;8.966;2023-05-29T02:23:34;10.40;;;3.78;;
58384;SDS011;44185;47.844;8.966;2023-05-29T02:25:59;11.95;;;4.43;;
58384;SDS011;44185;47.844;8.966;2023-05-29T02:28:25;11.93;;;4.72;;
58384;SDS011;44185;47.844;8.966;2023-05-29T02:30:50;14.23;;;4.43;;
58384;SDS011;44185;47.844;8.966;2023-05-29T02:33:16;9.95;;;4.22;;
58384;SDS011;44185;47.844;8.966;2023-05-29T02:35:43;11.65;;;4.22;;
58384;SDS011;44185;47.844;8.966;2023-05-29T02:38:08;11.65;;;4.22;;
58384;SDS011;44185;47.844;8.966;2023-05-29T02:40:34;10.40;;;4.07;;
58384;SDS011;44185;47.844;8.966;2023-05-29T02:42:59;9.85;;;4.15;;
58384;SDS011;44185;47.844;8.966;2023-05-29T02:45:25;12.02;;;4.28;;
58384;SDS011;44185;47.844;8.966;2023-05-29T02:47:50;9.50;;;4.22;;
58384;SDS011;44185;47.844;8.966;2023-05-29T02:50:19;7.75;;;3.72;;
58384;SDS011;44185;47.844;8.966;2023-05-29T02:52:46;9.38;;;4.05;;
58384;SDS011;44185;47.844;8.966;2023-05-29T02:55:11;10.55;;;4.13;;
58384;SDS011;44185;47.844;8.966;2023-05-29T02:57:37;9.32;;;4.53;;
58384;SDS011;44185;47.844;8.966;2023-05-29T03:00:02;9.70;;;4.18;;
58384;SDS011;44185;47.844;8.966;2023-05-29T03:02:28;9.30;;;4.05;;
58384;SDS011;44185;47.844;8.966;2023-05-29T03:04:53;8.88;;;3.70;;
58384;SDS011;44185;47.844;8.966;2023-05-29T03:07:19;9.55;;;4.00;;
58384;SDS011;44185;47.844;8.966;2023-05-29T03:09:46;6.85;;;4.00;;
58384;SDS011;44185;47.844;8.966;2023-05-29T03:12:11;9.52;;;4.28;;
58384;SDS011;44185;47.844;8.966;2023-05-29T03:14:37;10.95;;;3.95;;
58384;SDS011;44185;47.844;8.966;2023-05-29T03:17:03;7.75;;;3.95;;
58384;SDS011;44185;47.844;8.966;2023-05-29T03:19:29;8.43;;;3.97;;
58384;SDS011;44185;47.844;8.966;2023-05-29T03:21:54;8.75;;;4.25;;
58384;SDS011;44185;47.844;8.966;2023-05-29T03:24:20;11.20;;;4.55;;
58384;SDS011;44185;47.844;8.966;2023-05-29T03:26:46;10.15;;;4.10;;
58384;SDS011;44185;47.844;8.966;2023-05-29T03:29:12;11.50;;;4.18;;
58384;SDS011;44185;47.844;8.966;2023-05-29T03:31:37;8.95;;;3.70;;
58384;SDS011;44185;47.844;8.966;2023-05-29T03:34:03;13.48;;;4.15;;
58384;SDS011;44185;47.844;8.966;2023-05-29T03:36:28;7.93;;;4.10;;
58384;SDS011;44185;47.844;8.966;2023-05-29T03:38:54;11.63;;;4.90;;
58384;SDS011;44185;47.844;8.966;2023-05-29T03:41:19;9.77;;;3.67;;
58384;SDS011;44185;47.844;8.966;2023-05-29T03:43:46;10.07;;;3.80;;
58384;SDS011;44185;47.844;8.966;2023-05-29T03:46:11;10.18;;;4.13;;
58384;SDS011;44185;47.844;8.966;2023-05-29T03:48:37;7.93;;;4.00;;
58384;SDS011;44185;47.844;8.966;2023-05-29T03:51:04;11.18;;;4.25;;
58384;SDS011;44185;47.844;8.966;2023-05-29T03:53:29;10.38;;;4.22;;
58384;SDS011;44185;47.844;8.966;2023-05-29T03:55:55;8.20;;;4.03;;
58384;SDS011;44185;47.844;8.966;2023-05-29T03:58:20;6.82;;;3.53;;
58384;SDS011;44185;47.844;8.966;2023-05-29T04:00:47;8.77;;;3.67;;
58384;SDS011;44185;47.844;8.966;2023-05-29T04:03:12;8.90;;;4.20;;
58384;SDS011;44185;47.844;8.966;2023-05-29T04:05:38;10.52;;;4.65;;
58384;SDS011;44185;47.844;8.966;2023-05-29T04:08:04;8.60;;;3.78;;
58384;SDS011;44185;47.844;8.966;2023-05-29T04:10:29;11.95;;;3.75;;
58384;SDS011;44185;47.844;8.966;2023-05-29T04:12:55;8.65;;;4.05;;
58384;SDS011;44185;47.844;8.966;2023-05-29T04:15:20;7.47;;;3.97;;
58384;SDS011;44185;47.844;8.966;2023-05-29T04:17:47;8.23;;;3.78;;
58384;SDS011;44185;47.844;8.966;2023-05-29T04:20:13;10.25;;;4.45;;
58384;SDS011;44185;47.844;8.966;2023-05-29T04:22:38;10.00;;;3.80;;
58384;SDS011;44185;47.844;8.966;2023-05-29T04:25:04;6.65;;;3.28;;
58384;SDS011;44185;47.844;8.966;2023-05-29T04:27:30;9.27;;;3.45;;
58384;SDS011;44185;47.844;8.966;2023-05-29T04:29:55;10.10;;;3.83;;
58384;SDS011;44185;47.844;8.966;2023-05-29T04:32:21;12.65;;;4.13;;
58384;SDS011;44185;47.844;8.966;2023-05-29T04:34:48;9.15;;;4.25;;
58384;SDS011;44185;47.844;8.966;2023-05-29T04:37:13;9.45;;;3.95;;
58384;SDS011;44185;47.844;8.966;2023-05-29T04:39:38;7.38;;;3.20;;
58384;SDS011;44185;47.844;8.966;2023-05-29T04:42:04;9.45;;;4.20;;
58384;SDS011;44185;47.844;8.966;2023-05-29T04:44:30;10.38;;;3.88;;
58384;SDS011;44185;47.844;8.966;2023-05-29T04:46:55;6.50;;;3.78;;
58384;SDS011;44185;47.844;8.966;2023-05-29T04:49:21;9.50;;;3.67;;
58384;SDS011;44185;47.844;8.966;2023-05-29T04:51:48;7.57;;;3.90;;
58384;SDS011;44185;47.844;8.966;2023-05-29T04:54:13;7.95;;;3.70;;
58384;SDS011;44185;47.844;8.966;2023-05-29T04:56:39;12.15;;;3.90;;
58384;SDS011;44185;47.844;8.966;2023-05-29T04:59:04;8.10;;;3.70;;
58384;SDS011;44185;47.844;8.966;2023-05-29T05:01:30;8.52;;;3.15;;
58384;SDS011;44185;47.844;8.966;2023-05-29T05:03:55;7.50;;;3.10;;
58384;SDS011;44185;47.844;8.966;2023-05-29T05:06:20;7.65;;;3.28;;
58384;SDS011;44185;47.844;8.966;2023-05-29T05:08:47;9.95;;;3.80;;
58384;SDS011;44185;47.844;8.966;2023-05-29T05:11:13;7.47;;;3.50;;
58384;SDS011;44185;47.844;8.966;2023-05-29T05:13:39;7.38;;;3.47;;
58384;SDS011;44185;47.844;8.966;2023-05-29T05:16:05;6.78;;;3.42;;
58384;SDS011;44185;47.844;8.966;2023-05-29T05:18:30;7.50;;;3.50;;
58384;SDS011;44185;47.844;8.966;2023-05-29T05:20:56;5.10;;;2.55;;
58384;SDS011;44185;47.844;8.966;2023-05-29T05:23:21;6.22;;;3.35;;
58384;SDS011;44185;47.844;8.966;2023-05-29T05:25:48;7.20;;;3.15;;
58384;SDS011;44185;47.844;8.966;2023-05-29T05:28:14;10.48;;;3.65;;
58384;SDS011;44185;47.844;8.966;2023-05-29T05:30:39;7.75;;;3.50;;
58384;SDS011;44185;47.844;8.966;2023-05-29T05:33:05;9.35;;;3.45;;
58384;SDS011;44185;47.844;8.966;2023-05-29T05:35:30;6.50;;;3.10;;
58384;SDS011;44185;47.844;8.966;2023-05-29T05:37:55;7.82;;;3.22;;
58384;SDS011;44185;47.844;8.966;2023-05-29T05:40:21;9.52;;;4.03;;
58384;SDS011;44185;47.844;8.966;2023-05-29T05:42:48;5.78;;;3.38;;
58384;SDS011;44185;47.844;8.966;2023-05-29T05:45:13;6.50;;;3.22;;
58384;SDS011;44185;47.844;8.966;2023-05-29T05:47:38;7.90;;;3.32;;
58384;SDS011;44185;47.844;8.966;2023-05-29T05:50:04;9.32;;;3.40;;
58384;SDS011;44185;47.844;8.966;2023-05-29T05:52:30;7.05;;;3.35;;
58384;SDS011;44185;47.844;8.966;2023-05-29T05:54:56;7.88;;;3.63;;
58384;SDS011;44185;47.844;8.966;2023-05-29T05:57:21;6.93;;;3.38;;
58384;SDS011;44185;47.844;8.966;2023-05-29T05:59:48;7.50;;;3.17;;
58384;SDS011;44185;47.844;8.966;2023-05-29T06:02:13;8.38;;;3.25;;
58384;SDS011;44185;47.844;8.966;2023-05-29T06:04:39;9.25;;;3.67;;
58384;SDS011;44185;47.844;8.966;2023-05-29T06:07:05;6.38;;;3.47;;
58384;SDS011;44185;47.844;8.966;2023-05-29T06:09:30;11.93;;;4.05;;
58384;SDS011;44185;47.844;8.966;2023-05-29T06:11:56;5.75;;;3.17;;
58384;SDS011;44185;47.844;8.966;2023-05-29T06:14:21;9.10;;;4.13;;
58384;SDS011;44185;47.844;8.966;2023-05-29T06:16:48;8.25;;;3.42;;
58384;SDS011;44185;47.844;8.966;2023-05-29T06:19:13;5.85;;;2.92;;
58384;SDS011;44185;47.844;8.966;2023-05-29T06:21:39;7.70;;;3.40;;
58384;SDS011;44185;47.844;8.966;2023-05-29T06:24:04;9.52;;;3.60;;
58384;SDS011;44185;47.844;8.966;2023-05-29T06:26:30;6.63;;;3.58;;
58384;SDS011;44185;47.844;8.966;2023-05-29T06:28:55;7.43;;;3.13;;
58384;SDS011;44185;47.844;8.966;2023-05-29T06:31:21;6.20;;;3.47;;
58384;SDS011;44185;47.844;8.966;2023-05-29T06:33:47;8.43;;;3.53;;
58384;SDS011;44185;47.844;8.966;2023-05-29T06:36:13;10.02;;;3.60;;
58384;SDS011;44185;47.844;8.966;2023-05-29T06:38:38;8.05;;;3.67;;
58384;SDS011;44185;47.844;8.966;2023-05-29T06:41:04;6.97;;;3.20;;
58384;SDS011;44185;47.844;8.966;2023-05-29T06:43:29;8.02;;;3.30;;
58384;SDS011;44185;47.844;8.966;2023-05-29T06:45:55;8.63;;;3.65;;
58384;SDS011;44185;47.844;8.966;2023-05-29T06:48:20;8.90;;;3.42;;
58384;SDS011;44185;47.844;8.966;2023-05-29T06:50:47;7.75;;;3.72;;
58384;SDS011;44185;47.844;8.966;2023-05-29T06:53:12;7.38;;;3.35;;
58384;SDS011;44185;47.844;8.966;2023-05-29T06:55:38;7.72;;;3.47;;
58384;SDS011;44185;47.844;8.966;2023-05-29T06:58:04;10.93;;;3.90;;
58384;SDS011;44185;47.844;8.966;2023-05-29T07:00:29;8.00;;;3.53;;
58384;SDS011;44185;47.844;8.966;2023-05-29T07:02:55;8.55;;;3.85;;
58384;SDS011;44185;47.844;8.966;2023-05-29T07:05:20;7.78;;;3.70;;
58384;SDS011;44185;47.844;8.966;2023-05-29T07:07:47;9.00;;;3.58;;
58384;SDS011;44185;47.844;8.966;2023-05-29T07:10:12;8.48;;;4.15;;
58384;SDS011;44185;47.844;8.966;2023-05-29T07:12:38;7.80;;;3.53;;
58384;SDS011;44185;47.844;8.966;2023-05-29T07:15:03;8.10;;;3.95;;
58384;SDS011;44185;47.844;8.966;2023-05-29T07:17:29;8.15;;;3.97;;
58384;SDS011;44185;47.844;8.966;2023-05-29T07:19:55;8.82;;;3.80;;
58384;SDS011;44185;47.844;8.966;2023-05-29T07:22:20;6.07;;;3.33;;
58384;SDS011;44185;47.844;8.966;2023-05-29T07:24:47;7.60;;;3.85;;
58384;SDS011;44185;47.844;8.966;2023-05-29T07:27:12;9.18;;;3.85;;
58384;SDS011;44185;47.844;8.966;2023-05-29T07:29:38;8.50;;;3.47;;
58384;SDS011;44185;47.844;8.966;2023-05-29T07:32:04;8.95;;;3.97;;
58384;SDS011;44185;47.844;8.966;2023-05-29T07:34:29;8.80;;;4.00;;
58384;SDS011;44185;47.844;8.966;2023-05-29T07:36:56;8.95;;;3.78;;
58384;SDS011;44185;47.844;8.966;2023-05-29T07:39:22;8.73;;;3.90;;
58384;SDS011;44185;47.844;8.966;2023-05-29T07:41:49;9.45;;;3.83;;
58384;SDS011;44185;47.844;8.966;2023-05-29T07:44:15;7.93;;;3.88;;
58384;SDS011;44185;47.844;8.966;2023-05-29T07:46:40;8.33;;;3.80;;
58384;SDS011;44185;47.844;8.966;2023-05-29T07:49:05;8.82;;;4.10;;
58384;SDS011;44185;47.844;8.966;2023-05-29T07:51:31;8.00;;;4.03;;
58384;SDS011;44185;47.844;8.966;2023-05-29T07:53:56;7.15;;;3.50;;
58384;SDS011;44185;47.844;8.966;2023-05-29T07:56:22;9.63;;;4.10;;
58384;SDS011;44185;47.844;8.966;2023-05-29T07:58:48;7.03;;;3.70;;
58384;SDS011;44185;47.844;8.966;2023-05-29T08:01:14;8.35;;;3.97;;
58384;SDS011;44185;47.844;8.966;2023-05-29T08:03:40;9.07;;;3.72;;
58384;SDS011;44185;47.844;8.966;2023-05-29T08:06:06;8.80;;;4.00;;
58384;SDS011;44185;47.844;8.966;2023-05-29T08:08:32;8.77;;;3.72;;
58384;SDS011;44185;47.844;8.966;2023-05-29T08:10:57;10.32;;;3.95;;
58384;SDS011;44185;47.844;8.966;2023-05-29T08:13:23;5.93;;;3.50;;
58384;SDS011;44185;47.844;8.966;2023-05-29T08:15:49;7.50;;;3.93;;
58384;SDS011;44185;47.844;8.966;2023-05-29T08:18:15;9.93;;;3.88;;
58384;SDS011;44185;47.844;8.966;2023-05-29T08:20:40;11.63;;;4.10;;
58384;SDS011;44185;47.844;8.966;2023-05-29T08:23:06;7.05;;;3.17;;
58384;SDS011;44185;47.844;8.966;2023-05-29T08:25:31;9.77;;;3.72;;
58384;SDS011;44185;47.844;8.966;2023-05-29T08:27:56;9.43;;;3.90;;
58384;SDS011;44185;47.844;8.966;2023-05-29T08:30:22;10.40;;;4.30;;
58384;SDS011;44185;47.844;8.966;2023-05-29T08:32:49;8.32;;;3.85;;
58384;SDS011;44185;47.844;8.966;2023-05-29T08:35:14;9.48;;;3.53;;
58384;SDS011;44185;47.844;8.966;2023-05-29T08:37:40;6.68;;;3.33;;
58384;SDS011;44185;47.844;8.966;2023-05-29T08:40:05;8.85;;;4.15;;
58384;SDS011;44185;47.844;8.966;2023-05-29T08:42:32;7.65;;;3.60;;
58384;SDS011;44185;47.844;8.966;2023-05-29T08:45:02;8.53;;;4.10;;
58384;SDS011;44185;47.844;8.966;2023-05-29T08:47:28;6.45;;;3.80;;
58384;SDS011;44185;47.844;8.966;2023-05-29T08:50:00;7.50;;;3.90;;
58384;SDS011;44185;47.844;8.966;2023-05-29T08:52:26;8.15;;;3.60;;
58384;SDS011;44185;47.844;8.966;2023-05-29T08:54:54;8.10;;;3.72;;
58384;SDS011;44185;47.844;8.966;2023-05-29T08:57:20;6.57;;;3.88;;
58384;SDS011;44185;47.844;8.966;2023-05-29T08:59:50;7.80;;;4.40;;
58384;SDS011;44185;47.844;8.966;2023-05-29T09:02:16;8.38;;;3.58;;
58384;SDS011;44185;47.844;8.966;2023-05-29T09:04:42;7.18;;;3.90;;
58384;SDS011;44185;47.844;8.966;2023-05-29T09:07:12;6.78;;;3.85;;
58384;SDS011;44185;47.844;8.966;2023-05-29T09:09:37;7.25;;;3.70;;
58384;SDS011;44185;47.844;8.966;2023-05-29T09:12:03;9.45;;;3.90;;
58384;SDS011;44185;47.844;8.966;2023-05-29T09:14:32;8.00;;;3.75;;
58384;SDS011;44185;47.844;8.966;2023-05-29T09:16:59;7.20;;;3.75;;
58384;SDS011;44185;47.844;8.966;2023-05-29T09:19:24;8.10;;;3.80;;
58384;SDS011;44185;47.844;8.966;2023-05-29T09:21:50;8.18;;;3.75;;
58384;SDS011;44185;47.844;8.966;2023-05-29T09:24:17;8.02;;;3.72;;
58384;SDS011;44185;47.844;8.966;2023-05-29T09:26:48;9.60;;;4.28;;
58384;SDS011;44185;47.844;8.966;2023-05-29T09:29:14;8.38;;;4.28;;
58384;SDS011;44185;47.844;8.966;2023-05-29T09:31:42;7.47;;;3.80;;
58384;SDS011;44185;47.844;8.966;2023-05-29T09:34:11;7.97;;;3.70;;
58384;SDS011;44185;47.844;8.966;2023-05-29T09:36:37;7.15;;;3.45;;
58384;SDS011;44185;47.844;8.966;2023-05-29T09:39:03;8.77;;;3.65;;
58384;SDS011;44185;47.844;8.966;2023-05-29T09:41:30;7.57;;;3.38;;
58384;SDS011;44185;47.844;8.966;2023-05-29T09:43:55;7.72;;;3.70;;
58384;SDS011;44185;47.844;8.966;2023-05-29T09:46:21;9.88;;;4.20;;
58384;SDS011;44185;47.844;8.966;2023-05-29T09:48:46;9.38;;;3.90;;
58384;SDS011;44185;47.844;8.966;2023-05-29T09:51:20;7.13;;;3.67;;
58384;SDS011;44185;47.844;8.966;2023-05-29T09:53:48;8.93;;;4.40;;
58384;SDS011;44185;47.844;8.966;2023-05-29T09:56:14;7.97;;;3.47;;
58384;SDS011;44185;47.844;8.966;2023-05-29T09:58:42;7.43;;;3.80;;
58384;SDS011;44185;47.844;8.966;2023-05-29T10:01:07;7.77;;;3.77;;
58384;SDS011;44185;47.844;8.966;2023-05-29T10:03:33;8.60;;;3.92;;
58384;SDS011;44185;47.844;8.966;2023-05-29T10:05:59;8.80;;;3.90;;
58384;SDS011;44185;47.844;8.966;2023-05-29T10:08:24;7.97;;;3.88;;
58384;SDS011;44185;47.844;8.966;2023-05-29T10:10:52;8.48;;;4.30;;
58384;SDS011;44185;47.844;8.966;2023-05-29T10:13:23;9.38;;;4.18;;
58384;SDS011;44185;47.844;8.966;2023-05-29T10:15:54;8.70;;;3.93;;
58384;SDS011;44185;47.844;8.966;2023-05-29T10:18:23;8.40;;;3.65;;
58384;SDS011;44185;47.844;8.966;2023-05-29T10:20:51;5.93;;;2.92;;
58384;SDS011;44185;47.844;8.966;2023-05-29T10:23:19;6.28;;;3.60;;
58384;SDS011;44185;47.844;8.966;2023-05-29T10:25:47;8.02;;;3.75;;
58384;SDS011;44185;47.844;8.966;2023-05-29T10:28:17;7.28;;;3.58;;
58384;SDS011;44185;47.844;8.966;2023-05-29T10:30:43;6.13;;;3.55;;
58384;SDS011;44185;47.844;8.966;2023-05-29T10:33:20;7.68;;;3.58;;
58384;SDS011;44185;47.844;8.966;2023-05-29T10:36:09;7.40;;;3.80;;
58384;SDS011;44185;47.844;8.966;2023-05-29T10:38:40;6.20;;;3.42;;
58384;SDS011;44185;47.844;8.966;2023-05-29T10:43:56;8.60;;;3.75;;
58384;SDS011;44185;47.844;8.966;2023-05-29T10:46:29;8.52;;;3.83;;
58384;SDS011;44185;47.844;8.966;2023-05-29T10:49:28;8.98;;;4.38;;
58384;SDS011;44185;47.844;8.966;2023-05-29T10:51:54;6.13;;;3.60;;
58384;SDS011;44185;47.844;8.966;2023-05-29T10:54:22;9.88;;;4.28;;
58384;SDS011;44185;47.844;8.966;2023-05-29T10:56:51;8.80;;;4.15;;
58384;SDS011;44185;47.844;8.966;2023-05-29T10:59:17;7.85;;;4.00;;
58384;SDS011;44185;47.844;8.966;2023-05-29T11:01:43;8.23;;;3.90;;
58384;SDS011;44185;47.844;8.966;2023-05-29T11:04:29;5.75;;;3.50;;
58384;SDS011;44185;47.844;8.966;2023-05-29T11:06:54;8.45;;;3.60;;
58384;SDS011;44185;47.844;8.966;2023-05-29T11:09:30;10.07;;;4.25;;
58384;SDS011;44185;47.844;8.966;2023-05-29T11:14:46;7.55;;;4.10;;
58384;SDS011;44185;47.844;8.966;2023-05-29T11:17:31;9.52;;;4.03;;
58384;SDS011;44185;47.844;8.966;2023-05-29T11:20:00;7.53;;;3.60;;
58384;SDS011;44185;47.844;8.966;2023-05-29T11:22:28;7.63;;;3.88;;
58384;SDS011;44185;47.844;8.966;2023-05-29T11:27:43;7.20;;;3.85;;
58384;SDS011;44185;47.844;8.966;2023-05-29T11:30:09;8.10;;;3.70;;
58384;SDS011;44185;47.844;8.966;2023-05-29T11:32:36;7.28;;;3.83;;
58384;SDS011;44185;47.844;8.966;2023-05-29T11:35:04;8.70;;;3.78;;
58384;SDS011;44185;47.844;8.966;2023-05-29T11:37:33;8.73;;;3.80;;
58384;SDS011;44185;47.844;8.966;2023-05-29T11:39:59;6.80;;;3.58;;
58384;SDS011;44185;47.844;8.966;2023-05-29T11:42:27;5.47;;;3.50;;
58384;SDS011;44185;47.844;8.966;2023-05-29T11:44:53;7.97;;;3.80;;
58384;SDS011;44185;47.844;8.966;2023-05-29T11:47:19;8.95;;;4.13;;
58384;SDS011;44185;47.844;8.966;2023-05-29T11:49:44;7.88;;;4.00;;
58384;SDS011;44185;47.844;8.966;2023-05-29T11:52:12;7.57;;;3.65;;
58384;SDS011;44185;47.844;8.966;2023-05-29T11:54:38;5.68;;;3.35;;
58384;SDS011;44185;47.844;8.966;2023-05-29T11:57:04;6.07;;;3.85;;
58384;SDS011;44185;47.844;8.966;2023-05-29T11:59:30;8.32;;;3.45;;
58384;SDS011;44185;47.844;8.966;2023-05-29T12:01:55;6.95;;;3.67;;
58384;SDS011;44185;47.844;8.966;2023-05-29T12:04:21;6.28;;;3.28;;
58384;SDS011;44185;47.844;8.966;2023-05-29T12:06:47;7.82;;;3.63;;
58384;SDS011;44185;47.844;8.966;2023-05-29T12:09:24;5.72;;;3.45;;
58384;SDS011;44185;47.844;8.966;2023-05-29T12:11:50;6.63;;;3.33;;
58384;SDS011;44185;47.844;8.966;2023-05-29T12:14:15;7.00;;;3.38;;
58384;SDS011;44185;47.844;8.966;2023-05-29T12:16:41;7.68;;;3.67;;
58384;SDS011;44185;47.844;8.966;2023-05-29T12:19:06;7.22;;;3.55;;
58384;SDS011;44185;47.844;8.966;2023-05-29T12:21:32;7.65;;;3.83;;
58384;SDS011;44185;47.844;8.966;2023-05-29T12:23:57;8.77;;;3.45;;
58384;SDS011;44185;47.844;8.966;2023-05-29T12:26:24;5.93;;;3.20;;
58384;SDS011;44185;47.844;8.966;2023-05-29T12:28:50;7.22;;;3.33;;
58384;SDS011;44185;47.844;8.966;2023-05-29T12:31:25;7.25;;;3.35;;
58384;SDS011;44185;47.844;8.966;2023-05-29T12:33:51;7.20;;;3.60;;
58384;SDS011;44185;47.844;8.966;2023-05-29T12:36:16;7.60;;;3.22;;
58384;SDS011;44185;47.844;8.966;2023-05-29T12:38:49;5.87;;;3.10;;
58384;SDS011;44185;47.844;8.966;2023-05-29T12:41:22;7.25;;;3.20;;
58384;SDS011;44185;47.844;8.966;2023-05-29T12:43:49;7.35;;;3.20;;
58384;SDS011;44185;47.844;8.966;2023-05-29T12:46:17;4.85;;;2.65;;
58384;SDS011;44185;47.844;8.966;2023-05-29T12:48:42;8.93;;;3.20;;
58384;SDS011;44185;47.844;8.966;2023-05-29T12:51:08;7.43;;;3.30;;
58384;SDS011;44185;47.844;8.966;2023-05-29T12:53:33;6.65;;;3.45;;
58384;SDS011;44185;47.844;8.966;2023-05-29T12:55:59;5.43;;;2.75;;
58384;SDS011;44185;47.844;8.966;2023-05-29T12:58:26;5.68;;;3.08;;
58384;SDS011;44185;47.844;8.966;2023-05-29T13:00:52;5.50;;;2.80;;
58384;SDS011;44185;47.844;8.966;2023-05-29T13:03:19;6.30;;;3.25;;
58384;SDS011;44185;47.844;8.966;2023-05-29T13:05:44;7.90;;;3.22;;
58384;SDS011;44185;47.844;8.966;2023-05-29T13:08:10;5.60;;;3.00;;
58384;SDS011;44185;47.844;8.966;2023-05-29T13:10:35;5.00;;;3.30;;
58384;SDS011;44185;47.844;8.966;2023-05-29T13:13:01;5.03;;;2.65;;
58384;SDS011;44185;47.844;8.966;2023-05-29T13:15:28;7.82;;;2.95;;
58384;SDS011;44185;47.844;8.966;2023-05-29T13:17:53;6.18;;;3.00;;
58384;SDS011;44185;47.844;8.966;2023-05-29T13:20:19;5.35;;;2.25;;
58384;SDS011;44185;47.844;8.966;2023-05-29T13:22:45;7.13;;;3.35;;
58384;SDS011;44185;47.844;8.966;2023-05-29T13:25:12;4.85;;;2.83;;
58384;SDS011;44185;47.844;8.966;2023-05-29T13:27:40;4.47;;;2.90;;
58384;SDS011;44185;47.844;8.966;2023-05-29T13:30:07;6.05;;;2.90;;
58384;SDS011;44185;47.844;8.966;2023-05-29T13:32:35;5.85;;;3.10;;
58384;SDS011;44185;47.844;8.966;2023-05-29T13:35:01;6.07;;;2.90;;
58384;SDS011;44185;47.844;8.966;2023-05-29T13:37:27;6.38;;;2.90;;
58384;SDS011;44185;47.844;8.966;2023-05-29T13:39:52;6.65;;;3.13;;
58384;SDS011;44185;47.844;8.966;2023-05-29T13:42:18;8.13;;;2.97;;
58384;SDS011;44185;47.844;8.966;2023-05-29T13:44:44;4.88;;;2.83;;
58384;SDS011;44185;47.844;8.966;2023-05-29T13:47:10;5.85;;;2.90;;
58384;SDS011;44185;47.844;8.966;2023-05-29T13:49:37;6.90;;;2.88;;
58384;SDS011;44185;47.844;8.966;2023-05-29T13:52:02;4.40;;;2.63;;
58384;SDS011;44185;47.844;8.966;2023-05-29T13:54:29;6.07;;;3.13;;
58384;SDS011;44185;47.844;8.966;2023-05-29T13:56:54;5.88;;;2.80;;
58384;SDS011;44185;47.844;8.966;2023-05-29T13:59:20;4.93;;;2.95;;
58384;SDS011;44185;47.844;8.966;2023-05-29T14:01:45;3.53;;;2.55;;
58384;SDS011;44185;47.844;8.966;2023-05-29T14:04:11;6.95;;;3.13;;
58384;SDS011;44185;47.844;8.966;2023-05-29T14:06:37;4.90;;;2.90;;
58384;SDS011;44185;47.844;8.966;2023-05-29T14:09:03;5.47;;;2.92;;
58384;SDS011;44185;47.844;8.966;2023-05-29T14:11:28;8.23;;;3.10;;
58384;SDS011;44185;47.844;8.966;2023-05-29T14:13:54;4.60;;;2.70;;
58384;SDS011;44185;47.844;8.966;2023-05-29T14:16:19;5.18;;;2.70;;
58384;SDS011;44185;47.844;8.966;2023-05-29T14:18:45;6.25;;;2.70;;
58384;SDS011;44185;47.844;8.966;2023-05-29T14:21:10;6.28;;;2.85;;
58384;SDS011;44185;47.844;8.966;2023-05-29T14:23:37;4.63;;;2.67;;
58384;SDS011;44185;47.844;8.966;2023-05-29T14:26:03;4.85;;;2.95;;
58384;SDS011;44185;47.844;8.966;2023-05-29T14:28:28;5.25;;;2.83;;
58384;SDS011;44185;47.844;8.966;2023-05-29T14:30:54;3.60;;;2.55;;
58384;SDS011;44185;47.844;8.966;2023-05-29T14:33:19;5.85;;;2.83;;
58384;SDS011;44185;47.844;8.966;2023-05-29T14:35:45;5.80;;;2.88;;
58384;SDS011;44185;47.844;8.966;2023-05-29T14:38:12;4.30;;;2.83;;
58384;SDS011;44185;47.844;8.966;2023-05-29T14:40:39;6.88;;;3.13;;
58384;SDS011;44185;47.844;8.966;2023-05-29T14:43:05;4.75;;;2.78;;
58384;SDS011;44185;47.844;8.966;2023-05-29T14:45:30;6.95;;;3.15;;
58384;SDS011;44185;47.844;8.966;2023-05-29T14:47:56;4.43;;;2.53;;
58384;SDS011;44185;47.844;8.966;2023-05-29T14:50:21;6.40;;;2.92;;